Time;durP1;ratioP1;P1;durP2;ratioP2;P2;SDS_P1;SDS_P2;PMS_P1;PMS_P2;Temp;Humidity;BMP_temperature;BMP_pressure;BME280_temperature;BME280_humidity;BME280_pressure;Samples;Min_cycle;Max_cycle;Signal;HPM_P1;HPM_P2
2022/03/12 00:02:09;;;;;;;39.27;17.47;;;;;;;1.27;35.35;101711.06;4995279;28;97370;-84
2022/03/12 00:04:34;;;;;;;39.40;17.87;;;;;;;1.25;36.05;101695.53;4991228;28;98215;-86
2022/03/12 00:07:00;;;;;;;40.93;17.57;;;;;;;1.17;35.31;101689.28;4962328;28;101568;-84
2022/03/12 00:09:27;;;;;;;39.20;17.27;;;;;;;1.14;35.99;101707.28;4981644;28;97422;-85
2022/03/12 00:11:56;;;;;;;45.17;19.23;;;;;;;0.88;36.09;101676.44;4975836;28;96654;-88
2022/03/12 00:14:23;;;;;;;42.90;17.23;;;;;;;1.12;35.75;101706.38;4960716;28;101141;-85
2022/03/12 00:16:51;;;;;;;39.47;18.23;;;;;;;1.13;35.04;101692.59;4943253;28;100865;-85
2022/03/12 00:19:20;;;;;;;45.10;18.27;;;;;;;1.24;35.80;101705.81;4962387;28;97164;-87
2022/03/12 00:21:49;;;;;;;43.93;18.73;;;;;;;1.18;35.76;101701.34;4959383;28;97136;-84
2022/03/12 00:24:17;;;;;;;44.53;18.27;;;;;;;1.12;35.92;101704.66;4975784;28;97600;-85
2022/03/12 00:26:44;;;;;;;44.10;19.53;;;;;;;0.86;35.81;101690.16;4978349;28;101020;-85
2022/03/12 00:29:14;;;;;;;42.47;18.97;;;;;;;1.01;35.85;101700.03;4968574;28;97303;-84
2022/03/12 00:31:45;;;;;;;44.47;18.13;;;;;;;1.05;35.64;101699.31;4968631;28;96732;-84
2022/03/12 00:34:12;;;;;;;40.50;18.43;;;;;;;1.02;35.97;101697.50;5009042;28;98102;-85
2022/03/12 00:36:38;;;;;;;46.27;18.87;;;;;;;1.10;35.82;101705.44;4963165;28;101225;-85
2022/03/12 00:39:04;;;;;;;40.50;19.33;;;;;;;1.12;35.32;101691.72;4991313;28;97111;-83
2022/03/12 00:41:29;;;;;;;45.03;20.67;;;;;;;1.23;35.50;101707.53;4943463;28;97270;-85
2022/03/12 00:43:55;;;;;;;48.77;19.60;;;;;;;1.15;35.59;101693.50;4975116;28;101389;-85
2022/03/12 00:46:22;;;;;;;49.77;19.00;;;;;;;1.15;35.91;101695.22;4993377;28;100796;-85
2022/03/12 00:48:48;;;;;;;41.00;17.50;;;;;;;1.02;35.63;101686.25;4998164;28;97396;-85
2022/03/12 00:51:13;;;;;;;43.10;17.87;;;;;;;1.09;35.73;101681.28;4969398;28;96942;-87
2022/03/12 00:53:40;;;;;;;40.57;18.37;;;;;;;0.99;35.28;101644.78;5005704;28;97292;-85
2022/03/12 00:56:07;;;;;;;42.47;18.63;;;;;;;1.18;35.67;101695.31;4985103;28;97973;-85
2022/03/12 00:58:35;;;;;;;42.90;18.57;;;;;;;1.20;35.50;101693.66;4969426;28;96713;-89
2022/03/12 01:01:01;;;;;;;40.40;18.27;;;;;;;1.13;35.76;101677.97;4972840;28;96957;-87
2022/03/12 01:03:28;;;;;;;41.10;18.73;;;;;;;1.10;36.05;101677.88;4964603;28;98930;-84
2022/03/12 01:06:00;;;;;;;39.47;17.00;;;;;;;1.11;35.93;101684.81;4982350;28;100920;-84
2022/03/12 01:08:28;;;;;;;40.20;16.87;;;;;;;1.17;35.88;101689.28;4970238;28;97296;-85
2022/03/12 01:10:56;;;;;;;41.93;18.97;;;;;;;1.19;35.49;101674.63;4983383;28;97062;-85
2022/03/12 01:13:22;;;;;;;37.57;16.37;;;;;;;1.14;35.63;101686.59;4959185;28;101303;-86
2022/03/12 01:15:49;;;;;;;40.27;18.63;;;;;;;0.95;35.96;101637.81;4982872;28;100902;-84
2022/03/12 01:18:20;;;;;;;43.80;19.30;;;;;;;1.09;36.19;101686.47;4951024;28;96952;-85
2022/03/12 01:20:46;;;;;;;41.50;19.27;;;;;;;0.81;36.16;101669.31;4977307;28;97027;-85
2022/03/12 01:23:14;;;;;;;42.27;18.93;;;;;;;1.02;36.26;101699.19;4969114;28;101129;-84
2022/03/12 01:25:40;;;;;;;44.83;20.70;;;;;;;0.89;36.44;101664.38;4955579;28;101222;-84
2022/03/12 01:28:11;;;;;;;41.80;19.20;;;;;;;1.04;36.10;101684.59;4978296;28;97159;-84
2022/03/12 01:30:37;;;;;;;43.90;18.97;;;;;;;0.97;36.44;101680.97;4959388;28;97314;-85
2022/03/12 01:33:03;;;;;;;48.47;20.80;;;;;;;0.92;36.47;101679.09;4949331;28;101331;-85
2022/03/12 01:35:29;;;;;;;44.87;18.50;;;;;;;0.87;36.79;101669.53;4959960;28;101135;-84
2022/03/12 01:37:55;;;;;;;46.43;20.17;;;;;;;0.78;36.73;101664.06;4968935;28;96791;-85
2022/03/12 01:40:21;;;;;;;42.33;20.00;;;;;;;0.81;36.47;101671.03;4974367;28;96839;-87
2022/03/12 01:42:47;;;;;;;50.50;19.97;;;;;;;0.83;36.64;101675.44;4967636;28;98099;-87
2022/03/12 01:45:13;;;;;;;42.00;19.30;;;;;;;0.81;36.78;101661.56;4977248;28;98059;-85
2022/03/12 01:47:40;;;;;;;44.40;19.13;;;;;;;0.75;36.79;101660.53;4980286;28;97047;-85
2022/03/12 01:50:06;;;;;;;42.60;19.97;;;;;;;0.75;37.01;101668.28;4976689;28;97147;-86
2022/03/12 01:52:32;;;;;;;44.23;19.50;;;;;;;0.72;36.79;101663.91;4976897;28;97468;-86
2022/03/12 01:54:58;;;;;;;49.80;19.17;;;;;;;0.57;36.90;101666.09;4978242;28;101242;-85
2022/03/12 01:57:24;;;;;;;39.83;18.10;;;;;;;0.55;37.38;101673.78;4980508;28;96918;-84
2022/03/12 01:59:51;;;;;;;44.10;18.33;;;;;;;0.30;38.10;101664.47;4963863;28;97092;-86
2022/03/12 02:02:16;;;;;;;43.03;19.47;;;;;;;0.37;37.69;101656.03;4977536;28;98040;-86
2022/03/12 02:04:52;;;;;;;41.00;18.57;;;;;;;0.40;37.67;101657.84;4959434;28;97881;-84
2022/03/12 02:07:20;;;;;;;45.83;17.87;;;;;;;0.36;37.79;101649.13;4962125;28;96789;-84
2022/03/12 02:09:46;;;;;;;39.63;17.93;;;;;;;0.16;37.54;101637.34;4952917;28;97326;-85
2022/03/12 02:12:12;;;;;;;44.13;18.93;;;;;;;0.14;37.68;101645.03;4963668;28;98555;-84
2022/03/12 02:14:37;;;;;;;47.63;18.80;;;;;;;0.12;38.11;101643.28;4946729;28;99847;-90
2022/03/12 02:17:12;;;;;;;37.23;17.27;;;;;;;0.24;37.82;101645.34;4960386;28;97210;-85
2022/03/12 02:19:40;;;;;;;39.67;18.07;;;;;;;0.30;37.89;101645.50;4953806;28;96751;-86
2022/03/12 02:22:13;;;;;;;44.33;18.73;;;;;;;0.20;38.03;101619.41;4960822;28;97496;-84
2022/03/12 02:24:39;;;;;;;43.63;20.00;;;;;;;0.24;37.60;101625.53;4997692;28;97918;-85
2022/03/12 02:27:10;;;;;;;44.70;18.67;;;;;;;0.13;37.88;101598.53;4958120;28;97029;-84
2022/03/12 02:29:37;;;;;;;45.67;18.03;;;;;;;0.30;37.64;101630.88;4958434;28;97101;-87
2022/03/12 02:32:09;;;;;;;45.33;19.30;;;;;;;0.19;37.50;101607.31;4975143;28;101089;-85
2022/03/12 02:34:54;;;;;;;42.13;18.80;;;;;;;0.28;37.86;101640.28;4965177;28;101709;-84
2022/03/12 02:37:34;;;;;;;38.20;18.03;;;;;;;0.24;37.65;101627.25;4957238;28;97257;-84
2022/03/12 02:40:05;;;;;;;42.90;19.00;;;;;;;0.22;38.10;101635.81;4941324;28;96847;-86
2022/03/12 02:42:32;;;;;;;34.83;17.23;;;;;;;0.00;37.83;101633.44;4953022;28;101440;-85
2022/03/12 02:44:59;;;;;;;40.60;19.07;;;;;;;0.11;38.12;101629.44;4987494;28;100836;-84
2022/03/12 02:47:32;;;;;;;43.07;18.53;;;;;;;0.16;38.11;101629.59;4961128;28;96795;-85
2022/03/12 02:49:59;;;;;;;48.70;18.37;;;;;;;0.12;37.95;101615.72;4983378;28;97155;-85
2022/03/12 02:52:27;;;;;;;38.23;16.07;;;;;;;0.22;38.15;101633.22;4974457;28;97985;-84
2022/03/12 02:54:55;;;;;;;42.27;16.57;;;;;;;0.09;38.24;101645.72;4970208;28;97363;-84
2022/03/12 02:57:26;;;;;;;38.97;16.07;;;;;;;0.02;38.65;101643.81;4956831;28;96971;-84
2022/03/12 02:59:53;;;;;;;41.67;18.30;;;;;;;0.14;37.89;101641.59;4971032;28;97238;-85
2022/03/12 03:02:39;;;;;;;36.43;17.00;;;;;;;0.14;38.42;101632.13;4966664;28;101256;-85
2022/03/12 03:05:16;;;;;;;42.70;17.53;;;;;;;0.05;38.03;101612.91;4937569;28;100227;-85
2022/03/12 03:07:45;;;;;;;37.60;17.27;;;;;;;0.32;37.87;101636.06;4974407;28;96675;-86
2022/03/12 03:10:44;;;;;;;36.43;16.50;;;;;;;0.31;37.94;101630.03;4961029;28;97200;-85
2022/03/12 03:13:16;;;;;;;40.90;18.07;;;;;;;0.33;37.91;101643.00;4933960;28;101516;-84
2022/03/12 03:15:49;;;;;;;;;;;;;;;0.31;38.05;101637.78;4973514;28;101227;-86
2022/03/12 03:18:16;;;;;;;40.42;16.80;;;;;;;0.29;37.99;101631.72;4995478;28;97705;-85
2022/03/12 03:20:42;;;;;;;37.77;15.80;;;;;;;0.25;38.10;101632.44;4941002;28;96904;-85
2022/03/12 03:23:11;;;;;;;38.97;16.17;;;;;;;0.17;38.59;101634.78;4965054;28;97966;-85
2022/03/12 03:25:37;;;;;;;40.40;15.20;;;;;;;0.12;38.15;101620.91;4945701;28;101651;-85
2022/03/12 03:28:06;;;;;;;36.90;16.70;;;;;;;0.20;38.25;101636.59;4961114;28;96813;-85
2022/03/12 03:30:36;;;;;;;39.30;18.93;;;;;;;-0.18;38.49;101596.75;4977911;28;96888;-85
2022/03/12 03:33:03;;;;;;;38.60;16.00;;;;;;;-0.03;38.54;101615.25;4959697;28;100996;-83
2022/03/12 03:35:28;;;;;;;41.03;17.77;;;;;;;-0.18;38.06;101589.00;4930844;28;102764;-85
2022/03/12 03:37:56;;;;;;;38.73;16.30;;;;;;;-0.09;38.34;101623.72;4959364;28;96909;-84
2022/03/12 03:40:22;;;;;;;39.97;16.07;;;;;;;-0.11;38.57;101635.69;4977141;28;96861;-84
2022/03/12 03:42:48;;;;;;;38.70;16.73;;;;;;;-0.29;38.71;101624.78;4959967;28;97642;-85
2022/03/12 03:45:21;;;;;;;33.37;15.27;;;;;;;-0.25;38.79;101632.69;4994462;28;97631;-84
2022/03/12 03:47:47;;;;;;;38.33;16.83;;;;;;;-0.16;38.60;101634.69;4977132;28;97288;-85
2022/03/12 03:50:13;;;;;;;37.77;17.07;;;;;;;-0.22;38.34;101605.22;4979734;28;97053;-84
2022/03/12 03:52:39;;;;;;;39.37;16.73;;;;;;;-0.01;38.53;101626.50;4953032;28;101533;-85
2022/03/12 03:55:05;;;;;;;35.77;16.10;;;;;;;0.02;37.86;101629.19;4967632;28;97399;-85
2022/03/12 03:57:31;;;;;;;34.47;16.13;;;;;;;0.07;38.27;101634.50;4966457;28;96964;-86
2022/03/12 03:59:56;;;;;;;33.43;14.37;;;;;;;-0.04;38.29;101619.56;4975452;28;97099;-85
2022/03/12 04:02:22;;;;;;;34.63;15.63;;;;;;;-0.06;38.46;101618.66;4965888;28;97436;-85
2022/03/12 04:04:48;;;;;;;32.40;14.27;;;;;;;-0.21;38.75;101618.16;4971114;28;97413;-85
2022/03/12 04:07:14;;;;;;;34.70;16.07;;;;;;;-0.26;38.43;101633.53;4957520;28;97479;-85
2022/03/12 04:09:40;;;;;;;36.10;15.33;;;;;;;-0.18;38.58;101650.94;4938571;28;97273;-85
2022/03/12 04:12:06;;;;;;;33.53;15.03;;;;;;;-0.13;38.31;101652.84;4939912;28;101934;-85
2022/03/12 04:14:32;;;;;;;37.63;16.20;;;;;;;-0.04;38.52;101649.66;4973341;28;97836;-85
2022/03/12 04:16:58;;;;;;;36.47;15.23;;;;;;;-0.05;38.37;101656.53;4921731;28;97228;-85
2022/03/12 04:19:28;;;;;;;33.63;14.67;;;;;;;-0.02;37.87;101650.59;4953854;28;97073;-85
2022/03/12 04:21:57;;;;;;;33.47;14.60;;;;;;;-0.08;38.18;101630.63;4967258;28;97433;-85
2022/03/12 04:24:23;;;;;;;35.30;15.90;;;;;;;0.03;38.01;101650.72;4971773;28;101163;-84
2022/03/12 04:26:50;;;;;;;33.07;14.93;;;;;;;-0.03;38.03;101639.41;4989983;28;97259;-86
2022/03/12 04:29:16;;;;;;;37.40;15.63;;;;;;;-0.22;38.47;101618.13;4976519;28;97329;-85
2022/03/12 04:31:41;;;;;;;32.50;15.40;;;;;;;-0.16;38.45;101626.06;4987044;28;101781;-87
2022/03/12 04:34:07;;;;;;;42.47;15.27;;;;;;;-0.25;38.98;101637.84;4962237;28;101377;-86
2022/03/12 04:36:34;;;;;;;34.47;15.37;;;;;;;-0.36;39.32;101626.31;4957873;28;97109;-84
2022/03/12 04:39:00;;;;;;;35.83;16.33;;;;;;;-0.52;39.10;101614.66;4996477;28;97927;-85
2022/03/12 04:41:30;;;;;;;34.80;15.70;;;;;;;-0.39;39.23;101631.38;4974638;28;101526;-88
2022/03/12 04:43:56;;;;;;;38.03;15.83;;;;;;;-0.38;38.86;101634.84;4980334;28;97921;-85
2022/03/12 04:46:21;;;;;;;37.13;15.40;;;;;;;-0.30;38.92;101628.22;4982403;28;97172;-85
2022/03/12 04:48:47;;;;;;;36.53;15.87;;;;;;;-0.31;38.97;101631.63;4976299;28;96862;-85
2022/03/12 04:51:15;;;;;;;32.57;14.90;;;;;;;-0.33;38.95;101625.53;4991649;28;98128;-85
2022/03/12 04:53:41;;;;;;;35.30;16.43;;;;;;;-0.28;39.07;101629.16;4977666;28;97650;-85
2022/03/12 04:56:06;;;;;;;39.03;16.83;;;;;;;-0.47;39.05;101592.47;4978733;28;96994;-85
2022/03/12 04:58:32;;;;;;;40.00;15.73;;;;;;;-0.27;39.06;101636.03;4978604;28;96881;-84
2022/03/12 05:00:57;;;;;;;32.93;15.53;;;;;;;-0.26;39.00;101633.53;4978308;28;99905;-84
2022/03/12 05:03:24;;;;;;;35.23;14.53;;;;;;;-0.27;39.46;101644.66;4978744;28;101311;-84
2022/03/12 05:05:52;;;;;;;33.43;15.30;;;;;;;-0.30;39.41;101628.22;4995126;28;96755;-85
2022/03/12 05:08:28;;;;;;;35.73;14.93;;;;;;;-0.27;39.50;101636.03;4968798;28;97508;-86
2022/03/12 05:10:56;;;;;;;34.00;15.77;;;;;;;-0.30;39.25;101626.50;5004630;28;101146;-85
2022/03/12 05:13:29;;;;;;;31.33;14.73;;;;;;;-0.28;39.35;101640.34;4980500;28;97946;-84
2022/03/12 05:15:58;;;;;;;40.83;16.10;;;;;;;-0.34;39.66;101635.00;4959744;28;97260;-86
2022/03/12 05:18:26;;;;;;;32.87;15.07;;;;;;;-0.39;39.98;101620.19;4984882;28;96963;-85
2022/03/12 05:20:53;;;;;;;35.17;14.80;;;;;;;-0.33;39.59;101630.69;4978038;28;101413;-85
2022/03/12 05:23:22;;;;;;;32.87;15.40;;;;;;;-0.39;39.87;101626.22;4961567;28;101623;-85
2022/03/12 05:25:50;;;;;;;37.93;15.60;;;;;;;-0.57;40.00;101608.47;4962871;28;97682;-84
2022/03/12 05:28:24;;;;;;;36.17;16.70;;;;;;;-0.50;40.98;101627.56;4950609;28;97296;-83
2022/03/12 05:30:53;;;;;;;42.53;16.73;;;;;;;-0.76;40.86;101606.09;4973534;28;101356;-85
2022/03/12 05:33:19;;;;;;;35.63;15.30;;;;;;;-0.80;40.78;101620.59;4962633;28;97383;-88
2022/03/12 05:35:46;;;;;;;33.50;15.90;;;;;;;-0.73;41.06;101616.53;4965916;28;96745;-88
2022/03/12 05:38:13;;;;;;;33.57;16.03;;;;;;;-0.70;41.38;101611.47;4979690;28;96982;-85
2022/03/12 05:40:40;;;;;;;38.77;15.83;;;;;;;-0.67;41.28;101614.13;4997458;28;97512;-85
2022/03/12 05:43:12;;;;;;;32.67;14.70;;;;;;;-0.56;41.42;101622.22;4970523;28;100854;-84
2022/03/12 05:45:39;;;;;;;34.78;15.13;;;;;;;-0.61;40.94;101603.13;4990104;28;97180;-84
2022/03/12 05:48:09;;;;;;;39.97;16.47;;;;;;;-0.50;41.08;101625.00;4973212;28;97120;-84
2022/03/12 05:50:36;;;;;;;33.57;15.43;;;;;;;-0.52;40.94;101629.25;4979595;28;97802;-84
2022/03/12 05:53:02;;;;;;;35.50;14.27;;;;;;;-0.54;41.39;101625.75;4974798;28;100719;-84
2022/03/12 05:55:27;;;;;;;37.97;16.10;;;;;;;-0.60;41.25;101605.78;4974003;28;97104;-84
2022/03/12 05:57:53;;;;;;;37.90;17.70;;;;;;;-0.41;41.10;101627.00;4975050;28;97178;-83
2022/03/12 06:00:19;;;;;;;36.00;15.20;;;;;;;-0.39;41.17;101621.06;4945132;28;100747;-82
2022/03/12 06:02:51;;;;;;;33.17;16.03;;;;;;;-0.46;41.02;101595.91;4962877;28;97385;-82
2022/03/12 06:05:24;;;;;;;36.70;16.17;;;;;;;-0.50;41.15;101587.19;4993888;28;96806;-83
2022/03/12 06:07:50;;;;;;;36.07;15.83;;;;;;;-0.30;41.39;101636.81;4981373;28;96862;-87
2022/03/12 06:10:20;;;;;;;38.40;16.70;;;;;;;-0.25;40.94;101629.25;4967334;28;97460;-86
2022/03/12 06:12:45;;;;;;;38.03;16.77;;;;;;;-0.13;41.22;101634.75;4987933;28;101435;-85
2022/03/12 06:15:14;;;;;;;36.20;16.50;;;;;;;-0.19;41.42;101588.13;4962576;28;97146;-84
2022/03/12 06:17:39;;;;;;;46.30;17.23;;;;;;;0.03;41.13;101630.97;4968059;28;96839;-83
2022/03/12 06:20:07;;;;;;;43.47;17.00;;;;;;;0.13;41.04;101627.81;4979983;28;97305;-83
2022/03/12 06:22:33;;;;;;;35.53;16.20;;;;;;;0.28;40.84;101619.63;5015039;28;97670;-83
2022/03/12 06:24:58;;;;;;;36.40;15.47;;;;;;;0.49;41.19;101614.16;4990753;28;97419;-82
2022/03/12 06:27:24;;;;;;;38.37;16.40;;;;;;;0.49;40.53;101590.91;5027643;28;97841;-83
2022/03/12 06:29:50;;;;;;;39.40;15.97;;;;;;;0.92;40.23;101623.09;5017034;28;98048;-86
2022/03/12 06:32:16;;;;;;;38.20;16.47;;;;;;;0.99;39.94;101604.31;4987396;28;101591;-84
2022/03/12 06:34:43;;;;;;;38.27;17.87;;;;;;;1.14;39.48;101611.59;4977669;28;97766;-86
2022/03/12 06:37:09;;;;;;;39.13;16.43;;;;;;;1.31;39.78;101619.78;5011283;28;97526;-84
2022/03/12 06:39:35;;;;;;;42.77;17.87;;;;;;;1.35;39.23;101587.94;4980568;28;100894;-84
2022/03/12 06:42:02;;;;;;;38.00;17.93;;;;;;;1.64;39.04;101618.81;4987612;28;99688;-84
2022/03/12 06:44:31;;;;;;;37.53;16.07;;;;;;;1.71;38.44;101603.44;5007117;28;96690;-82
2022/03/12 06:46:56;;;;;;;39.23;16.97;;;;;;;1.90;37.80;101617.69;5001213;28;97107;-85
2022/03/12 06:49:22;;;;;;;39.00;17.83;;;;;;;1.98;37.87;101617.88;4984087;28;101038;-85
2022/03/12 06:51:48;;;;;;;44.40;18.23;;;;;;;2.19;37.68;101623.50;4997605;28;100989;-87
2022/03/12 06:54:14;;;;;;;37.00;16.80;;;;;;;2.19;37.36;101596.72;4989076;28;96941;-84
2022/03/12 06:56:39;;;;;;;40.50;17.40;;;;;;;2.32;37.34;101611.66;4999336;28;97000;-84
2022/03/12 06:59:06;;;;;;;38.37;17.43;;;;;;;2.51;36.69;101618.09;4985967;28;97335;-85
2022/03/12 07:01:32;;;;;;;38.37;17.67;;;;;;;2.62;36.92;101611.41;4972987;28;100924;-87
2022/03/12 07:03:59;;;;;;;40.27;16.80;;;;;;;2.79;36.50;101603.91;4981994;28;97033;-83
2022/03/12 07:06:24;;;;;;;44.03;18.63;;;;;;;2.89;36.03;101612.75;5012664;28;98572;-83
2022/03/12 07:08:50;;;;;;;39.93;17.63;;;;;;;2.99;36.47;101625.03;4998851;28;97566;-88
2022/03/12 07:11:17;;;;;;;37.07;18.33;;;;;;;3.07;35.84;101613.06;5016098;28;101214;-86
2022/03/12 07:13:43;;;;;;;42.93;19.33;;;;;;;3.33;35.99;101620.41;4982170;28;97458;-87
2022/03/12 07:16:08;;;;;;;37.27;18.80;;;;;;;3.54;35.56;101617.28;5017885;28;97349;-86
2022/03/12 07:18:34;;;;;;;41.40;18.83;;;;;;;3.64;35.35;101616.59;5010621;28;97822;-84
2022/03/12 07:21:00;;;;;;;43.63;19.67;;;;;;;3.46;35.08;101592.91;4986737;28;97512;-83
2022/03/12 07:23:26;;;;;;;41.70;19.03;;;;;;;3.61;35.05;101609.63;5005395;28;96688;-86
2022/03/12 07:25:52;;;;;;;40.63;19.30;;;;;;;3.78;34.81;101619.38;4990493;28;97717;-86
2022/03/12 07:28:20;;;;;;;39.50;19.40;;;;;;;3.92;35.26;101614.38;4974754;28;102115;-84
2022/03/12 07:30:46;;;;;;;44.93;20.40;;;;;;;4.08;34.73;101613.75;4978527;28;101144;-83
2022/03/12 07:33:11;;;;;;;42.30;20.47;;;;;;;4.16;34.97;101619.00;4992909;28;97126;-84
2022/03/12 07:35:37;;;;;;;45.07;19.87;;;;;;;4.30;34.82;101600.16;4984053;28;96897;-83
2022/03/12 07:38:04;;;;;;;43.13;19.70;;;;;;;4.59;34.21;101602.19;4962031;28;100711;-84
2022/03/12 07:40:30;;;;;;;44.73;20.43;;;;;;;4.95;34.01;101604.31;4981568;28;101304;-84
2022/03/12 07:42:56;;;;;;;40.10;19.80;;;;;;;5.15;34.09;101588.88;4993583;28;96802;-86
2022/03/12 07:45:23;;;;;;;43.40;20.20;;;;;;;5.43;33.06;101599.50;4986477;28;96819;-83
2022/03/12 07:47:50;;;;;;;44.73;19.30;;;;;;;5.62;32.86;101606.59;4990754;28;97391;-84
2022/03/12 07:50:16;;;;;;;44.50;19.70;;;;;;;5.75;32.87;101596.25;4989228;28;101369;-83
2022/03/12 07:52:42;;;;;;;42.73;20.43;;;;;;;5.81;32.54;101591.06;4995548;28;97748;-83
2022/03/12 07:55:09;;;;;;;39.33;18.80;;;;;;;5.90;32.33;101589.41;4995750;28;96837;-84
2022/03/12 07:57:36;;;;;;;42.80;20.53;;;;;;;6.09;32.37;101592.13;4972386;28;101435;-83
2022/03/12 08:00:04;;;;;;;33.77;18.60;;;;;;;6.27;31.62;101588.72;4991384;28;97385;-83
2022/03/12 08:02:40;;;;;;;34.77;18.73;;;;;;;6.16;31.67;101552.16;4981946;28;97761;-83
2022/03/12 08:05:06;;;;;;;39.70;20.17;;;;;;;6.68;31.35;101587.97;5011361;28;97067;-84
2022/03/12 08:07:32;;;;;;;43.37;21.27;;;;;;;6.85;31.10;101591.47;4993351;28;98316;-83
2022/03/12 08:09:59;;;;;;;48.13;22.67;;;;;;;6.99;30.64;101592.38;4978383;28;97848;-83
2022/03/12 08:12:35;;;;;;;42.23;22.20;;;;;;;7.03;30.77;101583.66;4978351;28;97281;-83
2022/03/12 08:15:08;;;;;;;38.30;20.03;;;;;;;7.26;30.51;101586.28;5006807;28;98201;-84
2022/03/12 08:17:35;;;;;;;38.93;19.97;;;;;;;7.63;30.45;101582.78;4974416;28;101623;-83
2022/03/12 08:20:03;;;;;;;40.77;20.43;;;;;;;7.80;30.42;101583.59;4986090;28;97963;-83
2022/03/12 08:22:29;;;;;;;38.27;19.80;;;;;;;8.07;29.67;101571.31;4976150;28;97053;-83
2022/03/12 08:24:55;;;;;;;39.60;19.00;;;;;;;8.40;29.69;101575.53;4976625;28;97079;-84
2022/03/12 08:27:21;;;;;;;36.95;18.38;;;;;;;8.14;29.37;101573.91;5007762;28;101690;-83
2022/03/12 08:29:46;;;;;;;36.03;19.27;;;;;;;8.24;29.21;101587.81;4958832;28;101486;-84
2022/03/12 08:32:12;;;;;;;38.10;19.37;;;;;;;8.42;28.60;101580.78;4971868;28;97257;-84
2022/03/12 08:34:38;;;;;;;33.97;17.98;;;;;;;8.57;28.91;101586.78;5007757;28;97011;-84
2022/03/12 08:37:04;;;;;;;37.60;18.55;;;;;;;8.83;28.80;101577.91;4994265;28;100959;-82
2022/03/12 08:39:31;;;;;;;33.92;18.23;;;;;;;8.97;27.96;101581.31;4988025;28;102400;-82
2022/03/12 08:41:56;;;;;;;35.58;17.88;;;;;;;8.98;28.00;101556.84;4995248;28;97348;-84
2022/03/12 08:44:22;;;;;;;40.72;19.08;;;;;;;9.47;27.71;101577.38;4987037;28;96956;-83
2022/03/12 08:46:47;;;;;;;33.42;17.58;;;;;;;9.81;27.55;101573.56;4961103;28;101585;-83
2022/03/12 08:49:13;;;;;;;32.17;18.52;;;;;;;10.06;27.12;101566.25;4999582;28;101443;-82
2022/03/12 08:51:41;;;;;;;38.22;19.50;;;;;;;10.06;27.10;101568.88;5008537;28;96795;-80
2022/03/12 08:54:07;;;;;;;40.58;20.23;;;;;;;9.80;27.30;101550.81;4978364;28;97210;-81
2022/03/12 08:56:34;;;;;;;38.50;19.85;;;;;;;10.08;27.53;101551.38;5024638;28;101388;-81
2022/03/12 08:58:59;;;;;;;35.05;18.75;;;;;;;10.45;26.38;101575.44;4970175;28;101116;-81
2022/03/12 09:01:25;;;;;;;36.50;19.08;;;;;;;9.85;27.16;101573.50;4994754;28;96809;-82
2022/03/12 09:03:52;;;;;;;33.03;18.52;;;;;;;9.96;27.63;101570.75;4989048;28;96815;-83
2022/03/12 09:06:18;;;;;;;33.17;19.23;;;;;;;10.42;27.29;101580.72;5013799;28;102039;-86
2022/03/12 09:08:46;;;;;;;32.78;18.55;;;;;;;10.68;26.43;101566.38;5002594;28;100960;-87
2022/03/12 09:11:15;;;;;;;33.15;18.98;;;;;;;10.70;26.05;101540.94;4984839;28;97406;-86
2022/03/12 09:13:41;;;;;;;34.20;19.52;;;;;;;11.21;26.47;101565.50;4974098;28;97303;-86
2022/03/12 09:16:06;;;;;;;28.75;16.40;;;;;;;11.54;25.71;101574.56;4975596;28;100907;-86
2022/03/12 09:18:32;;;;;;;30.30;18.15;;;;;;;11.57;24.88;101534.19;4983850;28;97315;-90
2022/03/12 09:20:57;;;;;;;33.05;18.35;;;;;;;11.71;24.62;101563.72;4987271;28;96930;-89
2022/03/12 09:23:23;;;;;;;34.08;17.85;;;;;;;11.38;25.49;101564.38;5021400;27;97119;-91
2022/03/12 09:25:50;;;;;;;31.45;18.08;;;;;;;10.97;25.83;101553.66;4977263;28;101796;-86
2022/03/12 09:28:19;;;;;;;33.20;19.23;;;;;;;11.05;25.82;101564.00;4999216;28;101506;-89
2022/03/12 09:30:50;;;;;;;33.75;21.05;;;;;;;11.54;25.82;101557.91;4992591;28;97517;-84
2022/03/12 09:33:17;;;;;;;34.60;17.80;;;;;;;11.56;24.61;101557.00;4985292;28;97332;-87
2022/03/12 09:35:43;;;;;;;37.70;18.85;;;;;;;11.81;25.01;101564.44;4971048;28;101172;-87
2022/03/12 09:38:10;;;;;;;31.85;17.38;;;;;;;11.55;25.33;101547.38;4961306;28;99248;-90
2022/03/12 09:40:35;;;;;;;38.45;19.65;;;;;;;11.21;25.63;101519.97;4983977;28;96959;-85
2022/03/12 09:43:02;;;;;;;38.65;21.40;;;;;;;11.67;25.59;101541.03;4988087;28;97271;-87
2022/03/12 09:45:28;;;;;;;45.35;25.55;;;;;;;11.44;25.03;101533.56;4985942;28;100625;-85
2022/03/12 09:47:54;;;;;;;36.63;21.30;;;;;;;11.42;25.30;101548.47;4989129;28;100778;-85
2022/03/12 09:50:20;;;;;;;40.08;21.70;;;;;;;11.21;25.47;101555.00;5009539;28;97004;-81
2022/03/12 09:52:46;;;;;;;41.05;23.30;;;;;;;11.53;25.39;101541.28;4977267;28;96891;-84
2022/03/12 09:55:13;;;;;;;37.03;21.13;;;;;;;11.42;24.79;101527.44;4986194;28;100314;-85
2022/03/12 09:57:38;;;;;;;32.15;18.10;;;;;;;11.82;25.09;101539.84;4993699;28;97868;-88
2022/03/12 10:00:06;;;;;;;31.58;17.17;;;;;;;11.92;24.51;101532.66;4971306;28;98004;-86
2022/03/12 10:02:37;;;;;;;29.65;17.85;;;;;;;12.01;23.90;101521.94;4981668;28;97532;-85
2022/03/12 10:05:03;;;;;;;29.33;16.08;;;;;;;12.32;24.01;101505.50;4984332;28;97315;-86
2022/03/12 10:07:29;;;;;;;30.42;17.15;;;;;;;12.77;23.68;101529.91;4996224;28;98271;-86
2022/03/12 10:09:55;;;;;;;31.48;16.70;;;;;;;12.35;24.35;101495.75;4975946;28;96844;-86
2022/03/12 10:12:20;;;;;;;30.55;17.83;;;;;;;12.45;23.94;101518.34;5005199;28;96892;-87
2022/03/12 10:14:49;;;;;;;29.10;16.50;;;;;;;12.30;24.05;101525.72;4977258;28;98411;-87
2022/03/12 10:17:17;;;;;;;28.25;16.77;;;;;;;12.38;24.04;101505.34;4957387;28;101490;-87
2022/03/12 10:19:45;;;;;;;30.23;15.32;;;;;;;12.52;23.82;101507.69;4997405;28;97326;-87
2022/03/12 10:22:10;;;;;;;30.75;17.40;;;;;;;12.58;23.74;101504.91;5003131;28;97396;-86
2022/03/12 10:24:36;;;;;;;31.27;17.77;;;;;;;12.68;23.56;101504.66;4991778;28;100986;-87
2022/03/12 10:27:06;;;;;;;30.75;17.02;;;;;;;12.26;23.73;101481.94;4981493;28;98295;-88
2022/03/12 10:29:31;;;;;;;35.85;17.95;;;;;;;12.32;23.69;101481.81;4998024;28;97553;-82
2022/03/12 10:31:57;;;;;;;26.85;15.82;;;;;;;12.50;23.56;101505.06;4972483;28;97071;-80
2022/03/12 10:34:24;;;;;;;31.67;16.60;;;;;;;12.22;23.51;101497.81;4978220;28;101032;-81
2022/03/12 10:36:53;;;;;;;26.27;15.20;;;;;;;12.15;23.58;101487.44;4977327;28;102156;-80
2022/03/12 10:39:32;;;;;;;37.10;16.40;;;;;;;12.16;23.77;101507.63;4985866;28;97301;-81
2022/03/12 10:42:04;;;;;;;26.75;15.75;;;;;;;11.55;24.15;101514.97;4997971;28;97526;-80
2022/03/12 10:44:38;;;;;;;25.13;15.32;;;;;;;11.29;24.24;101499.66;4958375;28;101130;-80
2022/03/12 10:47:24;;;;;;;24.23;13.90;;;;;;;11.01;24.82;101505.41;4977259;28;97902;-79
2022/03/12 10:49:58;;;;;;;27.15;15.80;;;;;;;10.92;24.98;101507.31;4977300;28;97893;-80
2022/03/12 10:52:29;;;;;;;26.95;15.45;;;;;;;10.63;24.53;101512.13;5007194;28;96756;-81
2022/03/12 10:54:55;;;;;;;25.10;15.05;;;;;;;10.57;25.11;101506.13;4994479;28;101857;-80
2022/03/12 10:57:21;;;;;;;22.30;13.23;;;;;;;10.39;25.05;101504.66;4974877;28;100507;-80
2022/03/12 10:59:52;;;;;;;24.27;14.57;;;;;;;10.32;24.80;101484.59;4991705;28;96853;-80
2022/03/12 11:02:18;;;;;;;21.67;13.00;;;;;;;10.34;24.58;101506.47;4960545;28;97430;-79
2022/03/12 11:04:44;;;;;;;26.50;14.27;;;;;;;9.94;25.50;101488.59;4993237;28;97834;-83
2022/03/12 11:07:27;;;;;;;22.02;13.15;;;;;;;9.84;25.79;101481.75;4992542;28;101213;-80
2022/03/12 11:09:54;;;;;;;28.40;14.02;;;;;;;9.91;25.59;101501.75;4977504;28;96985;-80
2022/03/12 11:12:31;;;;;;;21.40;12.48;;;;;;;9.65;25.47;101476.69;4979320;28;97856;-79
2022/03/12 11:15:05;;;;;;;21.88;12.73;;;;;;;9.39;25.54;101500.56;4978770;28;101684;-81